createdAt,value
2022-11-12T00:01:47.102Z,8.02
2022-11-12T00:04:15.194Z,7.30
2022-11-12T00:06:44.932Z,8.18
2022-11-12T00:09:12.961Z,8.57
2022-11-12T00:11:49.322Z,8.82
2022-11-12T00:14:17.548Z,8.70
2022-11-12T00:16:47.361Z,8.52
2022-11-12T00:19:15.352Z,8.25
2022-11-12T00:21:43.594Z,8.57
2022-11-12T00:24:11.779Z,8.43
2022-11-12T00:26:42.818Z,8.38
2022-11-12T00:29:12.573Z,9.25
2022-11-12T00:31:41.638Z,9.85
2022-11-12T00:37:18.363Z,8.73
2022-11-12T00:39:57.913Z,9.73
2022-11-12T00:42:42.497Z,8.80
2022-11-12T00:45:32.407Z,9.00
2022-11-12T00:48:13.364Z,9.40
2022-11-12T00:50:45.671Z,9.25
2022-11-12T00:53:27.716Z,9.48
2022-11-12T00:56:35.659Z,9.68
2022-11-12T00:59:17.393Z,9.80
2022-11-12T01:02:02.423Z,9.20
2022-11-12T01:04:54.903Z,9.13
2022-11-12T01:07:32.331Z,9.55
2022-11-12T01:10:23.601Z,9.90
2022-11-12T01:12:58.386Z,9.80
2022-11-12T01:15:39.425Z,9.23
2022-11-12T01:18:26.693Z,9.77
2022-11-12T01:21:06.602Z,10.07
2022-11-12T01:23:41.990Z,10.18
2022-11-12T01:26:19.254Z,10.32
2022-11-12T01:28:56.737Z,11.23
2022-11-12T01:31:45.174Z,10.57
2022-11-12T01:34:20.881Z,9.95
2022-11-12T01:36:51.543Z,10.55
2022-11-12T01:39:29.581Z,11.02
2022-11-12T01:42:16.091Z,10.65
2022-11-12T01:44:51.393Z,11.43
2022-11-12T01:47:31.849Z,11.48
2022-11-12T01:50:18.878Z,10.90
2022-11-12T01:52:58.775Z,11.77
2022-11-12T01:55:43.233Z,12.55
2022-11-12T01:58:25.291Z,12.18
2022-11-12T02:01:03.422Z,11.52
2022-11-12T02:03:42.262Z,10.70
2022-11-12T02:06:40.777Z,10.75
2022-11-12T02:09:23.495Z,10.40
2022-11-12T02:12:05.640Z,9.90
2022-11-12T02:14:36.811Z,11.35
2022-11-12T02:17:08.459Z,9.50
2022-11-12T02:19:52.069Z,9.85
2022-11-12T02:22:32.157Z,10.50
2022-11-12T02:25:19.320Z,11.57
2022-11-12T02:28:02.908Z,10.63
2022-11-12T02:30:49.555Z,10.35
2022-11-12T02:33:26.764Z,11.27
2022-11-12T02:35:59.499Z,9.73
2022-11-12T02:38:42.304Z,10.15
2022-11-12T02:41:20.317Z,11.13
2022-11-12T02:43:54.611Z,11.05
2022-11-12T02:46:29.533Z,10.35
2022-11-12T02:49:02.243Z,10.23
2022-11-12T02:51:46.576Z,10.45
2022-11-12T02:54:36.408Z,9.40
2022-11-12T02:57:21.142Z,10.90
2022-11-12T02:59:53.058Z,8.93
2022-11-12T03:02:27.604Z,9.57
2022-11-12T03:05:02.871Z,10.70
2022-11-12T03:07:41.516Z,11.20
2022-11-12T03:10:18.079Z,10.65
2022-11-12T03:12:51.713Z,10.65
2022-11-12T03:15:32.107Z,11.20
2022-11-12T03:18:05.345Z,10.90
2022-11-12T03:20:42.512Z,12.50
2022-11-12T03:23:22.431Z,12.07
2022-11-12T03:26:06.936Z,11.95
2022-11-12T03:32:10.033Z,13.30
2022-11-12T03:34:39.143Z,11.63
2022-11-12T03:37:12.939Z,12.43
2022-11-12T03:39:46.556Z,13.48
2022-11-12T03:42:20.380Z,12.00
2022-11-12T03:44:51.265Z,13.18
2022-11-12T03:47:23.761Z,13.20
2022-11-12T03:49:52.868Z,12.40
2022-11-12T03:52:21.731Z,14.00
2022-11-12T03:54:57.135Z,12.27
2022-11-12T03:57:33.650Z,13.65
2022-11-12T04:00:03.498Z,13.45
2022-11-12T04:02:38.903Z,13.98
2022-11-12T04:05:30.134Z,13.07
2022-11-12T04:08:20.896Z,13.48
2022-11-12T04:10:51.727Z,13.48
2022-11-12T04:13:29.704Z,14.10
2022-11-12T04:16:18.344Z,13.00
2022-11-12T04:19:09.884Z,13.82
2022-11-12T04:21:57.021Z,14.88
2022-11-12T04:24:49.281Z,14.32
2022-11-12T04:27:26.754Z,14.52
2022-11-12T04:30:13.140Z,14.85
2022-11-12T04:32:48.606Z,15.35
2022-11-12T04:35:25.861Z,14.63
2022-11-12T04:38:00.864Z,15.13
2022-11-12T04:40:56.050Z,14.55
2022-11-12T04:43:41.772Z,16.17
2022-11-12T04:46:13.999Z,15.43
2022-11-12T04:48:51.476Z,14.00
2022-11-12T04:51:45.324Z,14.07
2022-11-12T04:54:14.692Z,15.55
2022-11-12T04:56:50.650Z,15.68
2022-11-12T04:59:35.034Z,16.02
2022-11-12T05:02:10.695Z,16.52
2022-11-12T05:04:41.440Z,15.93
2022-11-12T05:07:13.327Z,16.40
2022-11-12T05:09:52.129Z,16.30
2022-11-12T05:12:24.860Z,15.65
2022-11-12T05:15:02.398Z,16.85
2022-11-12T05:17:34.519Z,15.90
2022-11-12T05:20:06.297Z,16.20
2022-11-12T05:22:50.432Z,15.85
2022-11-12T05:25:29.734Z,15.48
2022-11-12T05:28:08.043Z,15.85
2022-11-12T05:30:58.487Z,15.77
2022-11-12T05:33:26.591Z,14.88
2022-11-12T05:35:57.579Z,15.38
2022-11-12T05:38:28.002Z,14.73
2022-11-12T05:40:56.308Z,14.50
2022-11-12T05:43:24.773Z,14.77
2022-11-12T05:45:56.628Z,14.57
2022-11-12T05:48:25.974Z,14.32
2022-11-12T05:51:12.413Z,13.65
2022-11-12T05:53:43.247Z,13.45
2022-11-12T05:56:12.299Z,13.10
2022-11-12T05:58:40.736Z,12.80
2022-11-12T06:01:18.027Z,12.80
2022-11-12T06:03:46.777Z,12.77
2022-11-12T06:06:15.974Z,12.32
2022-11-12T06:08:46.847Z,12.55
2022-11-12T06:11:15.678Z,13.43
2022-11-12T06:13:44.075Z,13.45
2022-11-12T06:16:12.676Z,13.38
2022-11-12T06:18:42.834Z,14.52
2022-11-12T06:21:23.752Z,14.25
2022-11-12T06:23:55.261Z,13.77
2022-11-12T06:26:27.433Z,19.33
2022-11-12T06:28:56.470Z,14.63
2022-11-12T06:31:30.781Z,15.30
2022-11-12T06:34:12.569Z,20.17
2022-11-12T06:36:46.838Z,13.55
2022-11-12T06:39:22.489Z,15.25
2022-11-12T06:41:54.379Z,14.80
2022-11-12T06:44:26.147Z,14.50
2022-11-12T06:46:57.355Z,12.45
2022-11-12T06:49:27.389Z,14.25
2022-11-12T06:51:58.634Z,13.65
2022-11-12T06:54:31.170Z,14.48
2022-11-12T06:57:01.306Z,13.93
2022-11-12T06:59:35.843Z,15.27
2022-11-12T07:02:04.912Z,14.23
2022-11-12T07:04:43.269Z,13.05
2022-11-12T07:07:13.585Z,14.25
2022-11-12T07:09:44.992Z,15.43
2022-11-12T07:12:13.950Z,15.10
2022-11-12T07:14:45.150Z,15.02
2022-11-12T07:17:16.240Z,15.90
2022-11-12T07:19:51.882Z,16.02
2022-11-12T07:22:23.553Z,15.32
2022-11-12T07:25:00.472Z,16.15
2022-11-12T07:27:31.849Z,14.50
2022-11-12T07:30:04.017Z,15.68
2022-11-12T07:32:44.012Z,15.43
2022-11-12T07:35:23.100Z,14.37
2022-11-12T07:37:59.459Z,16.58
2022-11-12T07:40:32.540Z,16.73
2022-11-12T07:43:07.715Z,17.05
2022-11-12T07:45:37.274Z,17.02
2022-11-12T07:48:07.854Z,17.08
2022-11-12T07:50:39.498Z,16.60
2022-11-12T07:53:10.722Z,16.35
2022-11-12T07:55:41.714Z,16.75
2022-11-12T07:58:11.732Z,17.17
2022-11-12T08:00:41.381Z,16.48
2022-11-12T08:03:13.298Z,15.50
2022-11-12T08:05:44.604Z,16.98
2022-11-12T08:08:20.750Z,16.95
2022-11-12T08:10:55.101Z,16.95
2022-11-12T08:13:25.009Z,18.13
2022-11-12T08:15:56.123Z,18.85
2022-11-12T08:18:26.799Z,17.27
2022-11-12T08:21:01.977Z,17.00
2022-11-12T08:23:35.650Z,17.33
2022-11-12T08:26:25.972Z,17.58
2022-11-12T08:28:56.683Z,18.52
2022-11-12T08:31:31.604Z,19.23
2022-11-12T08:34:17.382Z,18.13
2022-11-12T08:36:57.772Z,16.98
2022-11-12T08:39:29.243Z,18.20
2022-11-12T08:42:01.507Z,17.85
2022-11-12T08:44:35.272Z,17.57
2022-11-12T08:47:15.662Z,17.55
2022-11-12T08:49:48.280Z,18.27
2022-11-12T08:52:31.376Z,18.90
2022-11-12T08:55:08.545Z,17.90
2022-11-12T08:57:45.101Z,17.35
2022-11-12T09:00:18.989Z,17.27
2022-11-12T09:03:00.678Z,18.13
2022-11-12T09:05:29.985Z,17.35
2022-11-12T09:08:01.140Z,17.80
2022-11-12T09:10:30.126Z,18.08
2022-11-12T09:13:00.346Z,17.67
2022-11-12T09:15:37.444Z,17.02
2022-11-12T09:18:33.862Z,17.90
2022-11-12T09:21:09.874Z,17.50
2022-11-12T09:23:47.627Z,20.17
2022-11-12T09:26:18.410Z,19.83
2022-11-12T09:28:54.390Z,19.20
2022-11-12T09:31:29.727Z,20.35
2022-11-12T09:33:59.002Z,18.17
2022-11-12T09:36:37.164Z,19.38
2022-11-12T09:39:11.909Z,19.77
2022-11-12T09:41:43.577Z,20.80
2022-11-12T09:44:17.200Z,19.30
2022-11-12T09:46:52.584Z,20.00
2022-11-12T09:49:31.075Z,20.35
2022-11-12T09:52:14.765Z,20.92
2022-11-12T09:54:47.865Z,21.60
2022-11-12T09:57:16.163Z,21.85
2022-11-12T09:59:45.655Z,22.08
2022-11-12T10:02:25.694Z,22.27
2022-11-12T10:05:22.262Z,23.00
2022-11-12T10:08:26.471Z,21.10
2022-11-12T10:11:01.761Z,23.40
2022-11-12T10:13:48.414Z,22.45
2022-11-12T10:19:32.636Z,22.48
2022-11-12T10:22:13.218Z,22.63
2022-11-12T10:24:42.932Z,18.02
2022-11-12T10:27:19.001Z,18.55
2022-11-12T10:29:54.704Z,18.38
2022-11-12T10:32:23.066Z,17.90
2022-11-12T10:34:53.175Z,18.25
2022-11-12T10:37:26.658Z,17.88
2022-11-12T10:39:56.758Z,19.27
2022-11-12T10:42:24.882Z,18.80
2022-11-12T10:44:53.044Z,20.88
2022-11-12T10:47:27.232Z,20.92
2022-11-12T10:50:20.239Z,21.80
2022-11-12T10:52:55.916Z,20.77
2022-11-12T10:55:25.857Z,20.73
2022-11-12T10:58:09.668Z,18.95
2022-11-12T11:00:39.682Z,21.25
2022-11-12T11:03:27.408Z,19.02
2022-11-12T11:06:01.756Z,19.92
2022-11-12T11:08:36.244Z,20.60
2022-11-12T11:11:23.304Z,20.15
2022-11-12T11:13:55.837Z,19.52
2022-11-12T11:16:26.116Z,19.48
2022-11-12T11:18:57.191Z,17.25
2022-11-12T11:21:56.442Z,17.27
2022-11-12T11:24:37.835Z,18.35
2022-11-12T11:27:15.615Z,19.00
2022-11-12T11:30:05.341Z,17.73
2022-11-12T11:32:50.795Z,21.60
2022-11-12T11:35:27.485Z,20.65
2022-11-12T11:38:14.662Z,20.85
2022-11-12T11:40:53.727Z,22.38
2022-11-12T11:43:50.123Z,19.85
2022-11-12T11:46:39.707Z,20.00
2022-11-12T11:49:22.131Z,20.23
2022-11-12T11:51:57.146Z,20.47
2022-11-12T11:54:51.783Z,20.50
2022-11-12T11:57:24.273Z,20.65
2022-11-12T12:00:11.141Z,20.80
2022-11-12T12:02:54.774Z,21.42
2022-11-12T12:05:40.744Z,23.05
2022-11-12T12:08:15.200Z,26.33
2022-11-12T12:11:11.744Z,21.17
2022-11-12T12:13:53.522Z,20.30
2022-11-12T12:16:43.697Z,18.17
2022-11-12T12:19:27.033Z,18.20
2022-11-12T12:24:28.927Z,16.23
2022-11-12T12:27:03.645Z,17.92
2022-11-12T12:29:37.955Z,17.48
2022-11-12T12:32:13.264Z,15.73
2022-11-12T12:34:44.409Z,17.70
2022-11-12T12:37:22.284Z,18.40
2022-11-12T12:39:56.474Z,19.10
2022-11-12T12:42:32.000Z,19.63
2022-11-12T12:45:08.174Z,19.20
2022-11-12T12:47:42.208Z,22.27
2022-11-12T12:50:15.266Z,31.58
2022-11-12T12:55:37.690Z,16.80
2022-11-12T12:58:21.829Z,18.05
2022-11-12T13:00:52.998Z,18.25
2022-11-12T13:03:54.020Z,15.75
2022-11-12T13:06:28.819Z,17.10
2022-11-12T13:09:01.229Z,16.77
2022-11-12T13:12:10.193Z,17.05
2022-11-12T13:15:14.524Z,17.60
2022-11-12T13:17:51.824Z,18.55
2022-11-12T13:20:42.261Z,18.85
2022-11-12T13:24:05.515Z,20.02
2022-11-12T13:26:54.137Z,20.00
2022-11-12T13:29:40.187Z,19.65
2022-11-12T13:32:37.486Z,24.20
2022-11-12T13:35:37.446Z,19.30
2022-11-12T13:38:13.299Z,29.17
2022-11-12T13:40:46.309Z,46.30
2022-11-12T13:43:34.181Z,36.72
2022-11-12T13:46:24.266Z,41.58
2022-11-12T13:48:59.251Z,26.23
2022-11-12T13:51:35.782Z,22.65
2022-11-12T13:54:23.997Z,22.08
2022-11-12T13:56:54.861Z,21.33
2022-11-12T13:59:26.063Z,20.67
2022-11-12T14:01:55.220Z,21.38
2022-11-12T14:04:27.678Z,21.98
2022-11-12T14:07:02.921Z,21.23
2022-11-12T14:09:51.807Z,22.60
2022-11-12T14:12:35.672Z,22.50
2022-11-12T14:15:16.514Z,22.63
2022-11-12T14:17:52.726Z,23.70
2022-11-12T14:20:31.989Z,24.92
2022-11-12T14:23:07.465Z,23.85
2022-11-12T14:25:37.784Z,22.80
2022-11-12T14:28:27.651Z,22.27
2022-11-12T14:30:57.008Z,24.92
2022-11-12T14:33:27.969Z,51.80
2022-11-12T14:36:00.920Z,26.60
2022-11-12T14:38:33.651Z,22.42
2022-11-12T14:41:06.059Z,24.00
2022-11-12T14:43:39.025Z,22.73
2022-11-12T14:46:08.927Z,23.58
2022-11-12T14:48:46.329Z,24.20
2022-11-12T14:51:16.113Z,22.67
2022-11-12T14:53:48.562Z,24.63
2022-11-12T14:56:25.068Z,24.85
2022-11-12T14:58:57.931Z,26.13
2022-11-12T15:02:08.846Z,25.73
2022-11-12T15:04:19.992Z,26.25
2022-11-12T15:06:55.957Z,26.63
2022-11-12T15:09:35.245Z,25.38
2022-11-12T15:12:09.919Z,23.25
2022-11-12T15:14:40.401Z,25.60
2022-11-12T15:17:19.963Z,24.02
2022-11-12T15:19:49.372Z,29.65
2022-11-12T15:22:22.336Z,27.17
2022-11-12T15:24:51.082Z,25.35
2022-11-12T15:27:35.418Z,24.30
2022-11-12T15:30:17.394Z,25.02
2022-11-12T15:32:50.143Z,25.00
2022-11-12T15:35:36.969Z,23.35
2022-11-12T15:38:08.926Z,23.20
2022-11-12T15:40:47.981Z,22.85
2022-11-12T15:43:19.149Z,23.45
2022-11-12T15:45:51.598Z,23.52
2022-11-12T15:48:19.960Z,26.42
2022-11-12T15:50:48.746Z,27.40
2022-11-12T15:53:19.423Z,24.08
2022-11-12T15:55:50.918Z,24.73
2022-11-12T15:58:28.693Z,25.27
2022-11-12T16:01:01.351Z,25.08
2022-11-12T16:03:31.360Z,25.17
2022-11-12T16:06:08.907Z,25.15
2022-11-12T16:08:38.520Z,28.17
2022-11-12T16:11:27.590Z,26.67
2022-11-12T16:14:01.639Z,30.65
2022-11-12T16:16:33.196Z,29.42
2022-11-12T16:19:03.637Z,29.40
2022-11-12T16:21:33.150Z,27.25
2022-11-12T16:24:02.019Z,29.38
2022-11-12T16:26:41.294Z,27.88
2022-11-12T16:29:17.636Z,30.02
2022-11-12T16:31:48.414Z,29.20
2022-11-12T16:34:18.102Z,30.20
2022-11-12T16:36:48.268Z,30.38
2022-11-12T16:39:23.960Z,31.00
2022-11-12T16:41:56.298Z,30.23
2022-11-12T16:44:24.647Z,29.52
2022-11-12T16:46:55.780Z,32.20
2022-11-12T16:49:26.183Z,37.22
2022-11-12T16:51:59.244Z,37.13
2022-11-12T16:56:57.578Z,31.15
2022-11-12T16:59:26.867Z,33.95
2022-11-12T17:01:57.463Z,30.83
2022-11-12T17:04:30.101Z,30.65
2022-11-12T17:07:04.659Z,31.55
2022-11-12T17:09:38.138Z,34.90
2022-11-12T17:12:10.217Z,30.73
2022-11-12T17:14:44.492Z,28.92
2022-11-12T17:17:14.541Z,30.48
2022-11-12T17:19:45.960Z,33.58
2022-11-12T17:22:18.336Z,32.90
2022-11-12T17:24:53.012Z,31.17
2022-11-12T17:27:24.835Z,31.70
2022-11-12T17:29:55.806Z,31.80
2022-11-12T17:32:37.034Z,35.30
2022-11-12T17:35:10.918Z,32.15
2022-11-12T17:40:39.536Z,32.63
2022-11-12T17:43:14.456Z,32.35
2022-11-12T17:46:02.657Z,31.67
2022-11-12T17:48:42.831Z,30.83
2022-11-12T17:51:14.665Z,29.05
2022-11-12T17:53:50.105Z,28.75
2022-11-12T17:56:22.377Z,30.42
2022-11-12T17:58:55.243Z,28.77
2022-11-12T18:01:25.965Z,29.23
2022-11-12T18:03:59.053Z,29.38
2022-11-12T18:06:31.795Z,27.88
2022-11-12T18:09:02.769Z,27.42
2022-11-12T18:11:33.980Z,26.38
2022-11-12T18:14:23.328Z,25.50
2022-11-12T18:17:04.695Z,26.60
2022-11-12T18:19:35.665Z,27.52
2022-11-12T18:22:08.101Z,26.77
2022-11-12T18:24:39.915Z,26.55
2022-11-12T18:27:14.066Z,25.95
2022-11-12T18:29:50.806Z,27.70
2022-11-12T18:32:36.589Z,28.35
2022-11-12T18:35:29.975Z,29.58
2022-11-12T18:38:06.876Z,27.88
2022-11-12T18:40:51.565Z,27.50
2022-11-12T18:43:21.274Z,26.63
2022-11-12T18:46:11.798Z,23.83
2022-11-12T18:48:59.015Z,25.45
2022-11-12T18:51:36.735Z,23.65
2022-11-12T18:54:17.082Z,25.00
2022-11-12T18:56:58.033Z,24.73
2022-11-12T18:59:39.445Z,24.38
2022-11-12T19:02:17.810Z,24.75
2022-11-12T19:04:56.018Z,23.40
2022-11-12T19:07:35.541Z,22.40
2022-11-12T19:10:16.802Z,24.25
2022-11-12T19:13:05.011Z,23.52
2022-11-12T19:15:39.985Z,26.80
2022-11-12T19:18:18.305Z,24.70
2022-11-12T19:21:02.178Z,22.40
2022-11-12T19:23:41.552Z,24.95
2022-11-12T19:26:29.715Z,24.67
2022-11-12T19:29:01.904Z,26.80
2022-11-12T19:31:38.909Z,25.97
2022-11-12T19:34:30.027Z,23.10
2022-11-12T19:37:32.601Z,22.00
2022-11-12T19:40:02.629Z,20.55
2022-11-12T19:42:30.789Z,20.42
2022-11-12T19:45:03.723Z,19.42
2022-11-12T19:47:34.059Z,19.52
2022-11-12T19:50:05.487Z,21.27
2022-11-12T19:52:33.848Z,23.25
2022-11-12T19:55:04.271Z,23.48
2022-11-12T19:57:33.556Z,24.33
2022-11-12T20:00:05.756Z,25.73
2022-11-12T20:02:35.411Z,26.53
2022-11-12T20:05:06.649Z,23.20
2022-11-12T20:07:39.284Z,24.45
2022-11-12T20:10:09.841Z,21.88
2022-11-12T20:12:42.588Z,23.48
2022-11-12T20:15:17.729Z,22.85
2022-11-12T20:17:48.577Z,23.75
2022-11-12T20:20:18.451Z,23.20
2022-11-12T20:22:46.522Z,23.45
2022-11-12T20:25:19.418Z,25.45
2022-11-12T20:27:49.512Z,24.30
2022-11-12T20:30:19.800Z,24.02
2022-11-12T20:32:49.469Z,25.35
2022-11-12T20:35:22.202Z,25.95
2022-11-12T20:40:31.660Z,19.55
2022-11-12T20:43:00.552Z,19.60
2022-11-12T20:45:28.896Z,19.38
2022-11-12T20:48:01.395Z,22.65
2022-11-12T20:50:30.166Z,20.10
2022-11-12T20:53:02.707Z,21.42
2022-11-12T20:55:40.838Z,23.00
2022-11-12T20:58:10.976Z,21.15
2022-11-12T21:00:41.317Z,20.48
2022-11-12T21:03:09.501Z,20.70
2022-11-12T21:05:37.866Z,21.15
2022-11-12T21:08:09.103Z,24.70
2022-11-12T21:10:39.646Z,21.15
2022-11-12T21:13:10.977Z,19.27
2022-11-12T21:15:50.195Z,19.98
2022-11-12T21:18:20.398Z,20.70
2022-11-12T21:20:50.547Z,22.65
2022-11-12T21:23:20.912Z,21.65
2022-11-12T21:25:50.333Z,19.33
2022-11-12T21:28:21.049Z,21.33
2022-11-12T21:30:51.442Z,19.55
2022-11-12T21:33:23.439Z,19.80
2022-11-12T21:35:55.060Z,19.42
2022-11-12T21:38:25.871Z,21.38
2022-11-12T21:41:03.810Z,21.33
2022-11-12T21:43:37.478Z,19.08
2022-11-12T21:46:11.573Z,19.90
2022-11-12T21:48:41.215Z,18.92
2022-11-12T21:51:16.584Z,22.50
2022-11-12T21:53:45.805Z,20.83
2022-11-12T21:56:20.638Z,19.42
2022-11-12T21:58:52.479Z,18.20
2022-11-12T22:01:22.911Z,17.42
2022-11-12T22:03:56.822Z,18.30
2022-11-12T22:06:29.075Z,19.55
2022-11-12T22:08:59.993Z,17.67
2022-11-12T22:11:32.314Z,17.70
2022-11-12T22:14:01.347Z,18.17
2022-11-12T22:16:30.994Z,19.42
2022-11-12T22:19:02.244Z,19.35
2022-11-12T22:21:36.999Z,18.63
2022-11-12T22:24:10.375Z,19.60
2022-11-12T22:26:40.305Z,18.58
2022-11-12T22:29:08.600Z,19.70
2022-11-12T22:31:39.767Z,16.77
2022-11-12T22:34:13.854Z,18.73
2022-11-12T22:36:42.354Z,21.20
2022-11-12T22:39:13.476Z,16.77
2022-11-12T22:41:42.846Z,18.65
2022-11-12T22:44:10.942Z,17.20
2022-11-12T22:46:39.670Z,18.13
2022-11-12T22:49:09.273Z,17.98
2022-11-12T22:51:38.440Z,17.67
2022-11-12T22:54:08.932Z,17.30
2022-11-12T22:56:40.452Z,18.60
2022-11-12T22:59:14.271Z,17.27
2022-11-12T23:01:44.481Z,18.90
2022-11-12T23:04:13.896Z,19.80
2022-11-12T23:06:46.698Z,21.23
2022-11-12T23:09:18.231Z,20.38
2022-11-12T23:11:46.272Z,21.40
2022-11-12T23:14:17.200Z,22.38
2022-11-12T23:16:46.528Z,21.90
2022-11-12T23:19:16.649Z,23.05
2022-11-12T23:21:45.253Z,23.70
2022-11-12T23:24:15.029Z,22.92
2022-11-12T23:26:43.894Z,23.00
2022-11-12T23:29:14.674Z,22.25
2022-11-12T23:31:47.155Z,21.55
2022-11-12T23:34:17.662Z,21.45
2022-11-12T23:36:47.398Z,21.70
2022-11-12T23:39:15.910Z,21.15
2022-11-12T23:41:44.296Z,21.80
2022-11-12T23:44:18.030Z,22.70
2022-11-12T23:46:48.208Z,21.27
2022-11-12T23:49:17.371Z,23.05
2022-11-12T23:51:47.530Z,21.60
2022-11-12T23:54:16.351Z,23.23
2022-11-12T23:56:45.907Z,23.52
2022-11-12T23:59:13.996Z,23.80
